sensor_id;sensor_type;location;lat;lon;timestamp;temperature;humidity
33007;DHT22;19361;51.598;7.650;2023-09-08T00:01:15;23.00;48.10
33007;DHT22;19361;51.598;7.650;2023-09-08T00:06:16;23.00;47.80
33007;DHT22;19361;51.598;7.650;2023-09-08T00:11:17;22.90;47.70
33007;DHT22;19361;51.598;7.650;2023-09-08T00:16:17;22.90;47.80
33007;DHT22;19361;51.598;7.650;2023-09-08T00:21:18;22.80;47.80
33007;DHT22;19361;51.598;7.650;2023-09-08T00:26:19;22.80;48.20
33007;DHT22;19361;51.598;7.650;2023-09-08T00:31:20;22.80;48.30
33007;DHT22;19361;51.598;7.650;2023-09-08T00:36:20;22.70;48.90
33007;DHT22;19361;51.598;7.650;2023-09-08T00:41:22;22.70;48.10
33007;DHT22;19361;51.598;7.650;2023-09-08T00:46:23;22.60;47.70
33007;DHT22;19361;51.598;7.650;2023-09-08T00:51:27;22.60;48.00
33007;DHT22;19361;51.598;7.650;2023-09-08T00:56:28;22.50;48.10
33007;DHT22;19361;51.598;7.650;2023-09-08T01:01:29;22.50;48.40
33007;DHT22;19361;51.598;7.650;2023-09-08T01:06:30;22.40;48.70
33007;DHT22;19361;51.598;7.650;2023-09-08T01:11:33;22.40;48.70
33007;DHT22;19361;51.598;7.650;2023-09-08T01:16:34;22.30;48.60
33007;DHT22;19361;51.598;7.650;2023-09-08T01:27:06;22.20;49.30
33007;DHT22;19361;51.598;7.650;2023-09-08T01:32:08;22.20;49.00
33007;DHT22;19361;51.598;7.650;2023-09-08T01:37:08;22.10;49.00
33007;DHT22;19361;51.598;7.650;2023-09-08T01:42:09;22.10;49.70
33007;DHT22;19361;51.598;7.650;2023-09-08T01:47:10;22.00;51.30
33007;DHT22;19361;51.598;7.650;2023-09-08T01:52:10;21.90;49.10
33007;DHT22;19361;51.598;7.650;2023-09-08T01:57:11;21.90;49.10
33007;DHT22;19361;51.598;7.650;2023-09-08T02:02:11;21.80;49.40
33007;DHT22;19361;51.598;7.650;2023-09-08T02:07:12;21.80;49.60
33007;DHT22;19361;51.598;7.650;2023-09-08T02:12:13;21.70;49.80
33007;DHT22;19361;51.598;7.650;2023-09-08T02:17:13;21.70;49.80
33007;DHT22;19361;51.598;7.650;2023-09-08T02:22:14;21.60;49.10
33007;DHT22;19361;51.598;7.650;2023-09-08T02:27:15;21.60;49.30
33007;DHT22;19361;51.598;7.650;2023-09-08T02:32:15;21.60;50.00
33007;DHT22;19361;51.598;7.650;2023-09-08T02:37:16;21.50;50.00
33007;DHT22;19361;51.598;7.650;2023-09-08T02:42:18;21.50;50.10
33007;DHT22;19361;51.598;7.650;2023-09-08T02:47:19;21.40;50.50
33007;DHT22;19361;51.598;7.650;2023-09-08T02:52:19;21.40;51.00
33007;DHT22;19361;51.598;7.650;2023-09-08T02:57:20;21.30;50.60
33007;DHT22;19361;51.598;7.650;2023-09-08T03:02:20;21.30;50.40
33007;DHT22;19361;51.598;7.650;2023-09-08T03:07:21;21.30;50.40
33007;DHT22;19361;51.598;7.650;2023-09-08T03:12:22;21.20;51.20
33007;DHT22;19361;51.598;7.650;2023-09-08T03:17:22;21.20;51.00
33007;DHT22;19361;51.598;7.650;2023-09-08T03:22:23;21.10;51.80
33007;DHT22;19361;51.598;7.650;2023-09-08T03:27:25;21.10;52.00
33007;DHT22;19361;51.598;7.650;2023-09-08T03:32:25;21.10;52.00
33007;DHT22;19361;51.598;7.650;2023-09-08T03:37:26;21.00;52.30
33007;DHT22;19361;51.598;7.650;2023-09-08T03:42:26;21.00;52.10
33007;DHT22;19361;51.598;7.650;2023-09-08T03:47:27;20.90;52.10
33007;DHT22;19361;51.598;7.650;2023-09-08T03:52:28;20.90;52.60
33007;DHT22;19361;51.598;7.650;2023-09-08T03:57:28;20.90;52.50
33007;DHT22;19361;51.598;7.650;2023-09-08T04:02:29;20.80;52.80
33007;DHT22;19361;51.598;7.650;2023-09-08T04:07:29;20.80;52.40
33007;DHT22;19361;51.598;7.650;2023-09-08T04:12:30;20.80;52.60
33007;DHT22;19361;51.598;7.650;2023-09-08T04:17:30;20.70;52.80
33007;DHT22;19361;51.598;7.650;2023-09-08T04:22:32;20.70;52.60
33007;DHT22;19361;51.598;7.650;2023-09-08T04:27:33;20.70;53.10
33007;DHT22;19361;51.598;7.650;2023-09-08T04:32:33;20.60;52.90
33007;DHT22;19361;51.598;7.650;2023-09-08T04:37:34;20.60;53.10
33007;DHT22;19361;51.598;7.650;2023-09-08T04:42:35;20.50;53.20
33007;DHT22;19361;51.598;7.650;2023-09-08T04:47:35;20.50;53.30
33007;DHT22;19361;51.598;7.650;2023-09-08T04:52:36;20.50;53.40
33007;DHT22;19361;51.598;7.650;2023-09-08T04:57:37;20.40;53.20
33007;DHT22;19361;51.598;7.650;2023-09-08T05:02:37;20.40;53.20
33007;DHT22;19361;51.598;7.650;2023-09-08T05:07:38;20.40;53.20
33007;DHT22;19361;51.598;7.650;2023-09-08T05:12:38;20.40;52.60
33007;DHT22;19361;51.598;7.650;2023-09-08T05:17:39;20.30;52.80
33007;DHT22;19361;51.598;7.650;2023-09-08T05:22:40;20.30;52.20
33007;DHT22;19361;51.598;7.650;2023-09-08T05:27:40;20.40;52.70
33007;DHT22;19361;51.598;7.650;2023-09-08T05:32:41;20.40;53.30
33007;DHT22;19361;51.598;7.650;2023-09-08T05:37:41;20.50;54.10
33007;DHT22;19361;51.598;7.650;2023-09-08T05:42:42;20.90;53.80
33007;DHT22;19361;51.598;7.650;2023-09-08T05:47:43;21.20;54.20
33007;DHT22;19361;51.598;7.650;2023-09-08T05:52:43;21.60;54.10
33007;DHT22;19361;51.598;7.650;2023-09-08T05:57:44;21.90;53.80
33007;DHT22;19361;51.598;7.650;2023-09-08T06:02:45;22.20;53.80
33007;DHT22;19361;51.598;7.650;2023-09-08T06:07:45;22.60;53.50
33007;DHT22;19361;51.598;7.650;2023-09-08T06:12:46;22.70;53.20
33007;DHT22;19361;51.598;7.650;2023-09-08T06:17:47;22.80;52.60
33007;DHT22;19361;51.598;7.650;2023-09-08T06:22:49;22.80;52.80
33007;DHT22;19361;51.598;7.650;2023-09-08T06:27:49;22.70;52.60
33007;DHT22;19361;51.598;7.650;2023-09-08T06:32:50;22.60;52.30
33007;DHT22;19361;51.598;7.650;2023-09-08T06:37:50;22.50;52.40
33007;DHT22;19361;51.598;7.650;2023-09-08T06:42:51;22.50;52.90
33007;DHT22;19361;51.598;7.650;2023-09-08T06:47:53;22.50;52.90
33007;DHT22;19361;51.598;7.650;2023-09-08T06:52:55;22.60;53.30
33007;DHT22;19361;51.598;7.650;2023-09-08T06:57:56;22.70;53.40
33007;DHT22;19361;51.598;7.650;2023-09-08T07:02:57;22.80;54.10
33007;DHT22;19361;51.598;7.650;2023-09-08T07:07:57;22.90;53.80
33007;DHT22;19361;51.598;7.650;2023-09-08T07:12:58;23.00;54.30
33007;DHT22;19361;51.598;7.650;2023-09-08T07:17:58;23.20;54.30
33007;DHT22;19361;51.598;7.650;2023-09-08T07:22:59;23.30;54.90
33007;DHT22;19361;51.598;7.650;2023-09-08T07:27:59;23.40;55.10
33007;DHT22;19361;51.598;7.650;2023-09-08T07:33:00;23.60;55.20
33007;DHT22;19361;51.598;7.650;2023-09-08T07:38:01;23.80;55.60
33007;DHT22;19361;51.598;7.650;2023-09-08T07:43:01;23.90;55.20
33007;DHT22;19361;51.598;7.650;2023-09-08T07:48:02;24.10;55.10
33007;DHT22;19361;51.598;7.650;2023-09-08T07:53:03;24.30;55.30
33007;DHT22;19361;51.598;7.650;2023-09-08T07:58:04;24.50;55.20
33007;DHT22;19361;51.598;7.650;2023-09-08T08:03:04;24.70;55.00
33007;DHT22;19361;51.598;7.650;2023-09-08T08:08:06;24.90;55.20
33007;DHT22;19361;51.598;7.650;2023-09-08T08:13:08;25.10;54.70
33007;DHT22;19361;51.598;7.650;2023-09-08T08:18:08;25.30;54.50
33007;DHT22;19361;51.598;7.650;2023-09-08T08:23:10;25.50;54.30
33007;DHT22;19361;51.598;7.650;2023-09-08T08:28:10;25.80;54.20
33007;DHT22;19361;51.598;7.650;2023-09-08T08:33:11;26.00;54.00
33007;DHT22;19361;51.598;7.650;2023-09-08T08:38:11;26.20;53.90
33007;DHT22;19361;51.598;7.650;2023-09-08T08:43:12;26.40;53.50
33007;DHT22;19361;51.598;7.650;2023-09-08T08:48:13;26.60;53.60
33007;DHT22;19361;51.598;7.650;2023-09-08T08:53:14;26.70;53.20
33007;DHT22;19361;51.598;7.650;2023-09-08T08:58:16;26.90;53.40
33007;DHT22;19361;51.598;7.650;2023-09-08T09:03:21;27.10;52.70
33007;DHT22;19361;51.598;7.650;2023-09-08T09:08:22;27.20;52.70
33007;DHT22;19361;51.598;7.650;2023-09-08T09:13:23;27.40;51.80
33007;DHT22;19361;51.598;7.650;2023-09-08T09:18:24;27.60;51.30
33007;DHT22;19361;51.598;7.650;2023-09-08T09:23:31;27.80;51.10
33007;DHT22;19361;51.598;7.650;2023-09-08T09:28:34;28.00;50.80
33007;DHT22;19361;51.598;7.650;2023-09-08T09:33:34;28.20;50.20
33007;DHT22;19361;51.598;7.650;2023-09-08T09:38:35;28.40;50.00
33007;DHT22;19361;51.598;7.650;2023-09-08T09:43:35;28.60;48.80
33007;DHT22;19361;51.598;7.650;2023-09-08T09:48:37;28.70;48.10
33007;DHT22;19361;51.598;7.650;2023-09-08T09:53:37;28.90;48.90
33007;DHT22;19361;51.598;7.650;2023-09-08T09:58:42;29.10;49.70
33007;DHT22;19361;51.598;7.650;2023-09-08T10:03:43;29.30;48.70
33007;DHT22;19361;51.598;7.650;2023-09-08T10:08:44;29.40;47.80
33007;DHT22;19361;51.598;7.650;2023-09-08T10:13:46;29.60;48.80
33007;DHT22;19361;51.598;7.650;2023-09-08T10:18:48;29.80;47.80
33007;DHT22;19361;51.598;7.650;2023-09-08T10:23:51;29.90;46.90
33007;DHT22;19361;51.598;7.650;2023-09-08T10:28:56;30.10;47.00
33007;DHT22;19361;51.598;7.650;2023-09-08T10:33:57;30.20;47.10
33007;DHT22;19361;51.598;7.650;2023-09-08T10:44:27;30.40;46.70
33007;DHT22;19361;51.598;7.650;2023-09-08T10:49:34;30.50;46.30
33007;DHT22;19361;51.598;7.650;2023-09-08T10:54:42;30.60;45.40
33007;DHT22;19361;51.598;7.650;2023-09-08T10:59:56;30.70;45.50
33007;DHT22;19361;51.598;7.650;2023-09-08T11:04:57;30.80;44.50
33007;DHT22;19361;51.598;7.650;2023-09-08T11:09:59;31.00;45.30
33007;DHT22;19361;51.598;7.650;2023-09-08T11:15:01;31.10;45.10
33007;DHT22;19361;51.598;7.650;2023-09-08T11:20:08;31.10;43.80
33007;DHT22;19361;51.598;7.650;2023-09-08T11:25:10;31.30;41.20
33007;DHT22;19361;51.598;7.650;2023-09-08T11:30:11;31.40;41.60
33007;DHT22;19361;51.598;7.650;2023-09-08T11:35:12;31.50;43.60
33007;DHT22;19361;51.598;7.650;2023-09-08T11:40:13;31.60;43.70
33007;DHT22;19361;51.598;7.650;2023-09-08T11:45:14;31.70;42.90
33007;DHT22;19361;51.598;7.650;2023-09-08T11:50:18;31.80;42.40
33007;DHT22;19361;51.598;7.650;2023-09-08T11:55:19;31.90;41.00
33007;DHT22;19361;51.598;7.650;2023-09-08T12:00:21;32.00;41.70
33007;DHT22;19361;51.598;7.650;2023-09-08T12:05:23;32.10;41.00
33007;DHT22;19361;51.598;7.650;2023-09-08T12:10:25;32.20;40.00
33007;DHT22;19361;51.598;7.650;2023-09-08T12:15:29;32.20;42.00
33007;DHT22;19361;51.598;7.650;2023-09-08T12:20:34;32.30;42.00
33007;DHT22;19361;51.598;7.650;2023-09-08T12:25:44;32.40;41.70
33007;DHT22;19361;51.598;7.650;2023-09-08T12:30:45;32.50;40.80
33007;DHT22;19361;51.598;7.650;2023-09-08T12:35:46;32.50;40.70
33007;DHT22;19361;51.598;7.650;2023-09-08T12:40:48;32.70;40.80
33007;DHT22;19361;51.598;7.650;2023-09-08T12:45:49;32.70;41.10
33007;DHT22;19361;51.598;7.650;2023-09-08T12:50:49;32.80;39.40
33007;DHT22;19361;51.598;7.650;2023-09-08T12:55:50;32.80;40.00
33007;DHT22;19361;51.598;7.650;2023-09-08T13:00:51;32.80;39.90
33007;DHT22;19361;51.598;7.650;2023-09-08T13:05:51;32.90;38.00
33007;DHT22;19361;51.598;7.650;2023-09-08T13:10:52;32.90;38.90
33007;DHT22;19361;51.598;7.650;2023-09-08T13:15:52;32.90;39.60
33007;DHT22;19361;51.598;7.650;2023-09-08T13:20:53;33.00;39.10
33007;DHT22;19361;51.598;7.650;2023-09-08T13:25:54;33.00;36.80
33007;DHT22;19361;51.598;7.650;2023-09-08T13:30:54;33.10;39.10
33007;DHT22;19361;51.598;7.650;2023-09-08T13:35:55;33.00;38.50
33007;DHT22;19361;51.598;7.650;2023-09-08T13:40:56;33.00;39.20
33007;DHT22;19361;51.598;7.650;2023-09-08T13:45:56;33.10;37.00
33007;DHT22;19361;51.598;7.650;2023-09-08T13:51:03;33.20;38.10
33007;DHT22;19361;51.598;7.650;2023-09-08T13:56:04;33.20;37.90
33007;DHT22;19361;51.598;7.650;2023-09-08T14:01:05;33.20;37.90
33007;DHT22;19361;51.598;7.650;2023-09-08T14:06:06;33.20;37.70
33007;DHT22;19361;51.598;7.650;2023-09-08T14:11:07;33.20;38.20
33007;DHT22;19361;51.598;7.650;2023-09-08T14:16:07;33.20;38.30
33007;DHT22;19361;51.598;7.650;2023-09-08T14:21:08;33.20;38.70
33007;DHT22;19361;51.598;7.650;2023-09-08T14:26:08;33.20;38.50
33007;DHT22;19361;51.598;7.650;2023-09-08T14:31:09;33.20;38.40
33007;DHT22;19361;51.598;7.650;2023-09-08T14:36:10;33.20;37.70
33007;DHT22;19361;51.598;7.650;2023-09-08T14:41:10;33.20;38.40
33007;DHT22;19361;51.598;7.650;2023-09-08T14:46:11;33.20;38.70
33007;DHT22;19361;51.598;7.650;2023-09-08T14:51:11;33.20;38.80
33007;DHT22;19361;51.598;7.650;2023-09-08T14:56:12;33.20;38.40
33007;DHT22;19361;51.598;7.650;2023-09-08T15:01:12;33.20;38.40
33007;DHT22;19361;51.598;7.650;2023-09-08T15:06:14;33.20;38.30
33007;DHT22;19361;51.598;7.650;2023-09-08T15:11:14;33.20;38.60
33007;DHT22;19361;51.598;7.650;2023-09-08T15:16:15;33.20;38.40
33007;DHT22;19361;51.598;7.650;2023-09-08T15:21:16;33.10;38.40
33007;DHT22;19361;51.598;7.650;2023-09-08T15:26:16;33.10;38.50
33007;DHT22;19361;51.598;7.650;2023-09-08T15:31:17;33.10;37.90
33007;DHT22;19361;51.598;7.650;2023-09-08T15:36:18;33.00;38.00
33007;DHT22;19361;51.598;7.650;2023-09-08T15:41:18;33.00;38.20
33007;DHT22;19361;51.598;7.650;2023-09-08T15:46:20;33.00;38.20
33007;DHT22;19361;51.598;7.650;2023-09-08T15:51:21;32.90;37.50
33007;DHT22;19361;51.598;7.650;2023-09-08T15:56:21;32.90;38.20
33007;DHT22;19361;51.598;7.650;2023-09-08T16:01:22;32.80;38.20
33007;DHT22;19361;51.598;7.650;2023-09-08T16:06:22;32.80;38.30
33007;DHT22;19361;51.598;7.650;2023-09-08T16:11:24;32.80;38.30
33007;DHT22;19361;51.598;7.650;2023-09-08T16:16:25;32.70;38.30
33007;DHT22;19361;51.598;7.650;2023-09-08T16:21:25;32.60;38.40
33007;DHT22;19361;51.598;7.650;2023-09-08T16:26:26;32.50;38.30
33007;DHT22;19361;51.598;7.650;2023-09-08T16:31:26;32.40;38.30
33007;DHT22;19361;51.598;7.650;2023-09-08T16:36:27;32.30;38.30
33007;DHT22;19361;51.598;7.650;2023-09-08T16:41:27;32.20;38.40
33007;DHT22;19361;51.598;7.650;2023-09-08T16:46:28;32.10;38.30
33007;DHT22;19361;51.598;7.650;2023-09-08T16:51:29;32.00;38.10
33007;DHT22;19361;51.598;7.650;2023-09-08T16:56:29;31.80;38.20
33007;DHT22;19361;51.598;7.650;2023-09-08T17:01:30;31.70;38.40
33007;DHT22;19361;51.598;7.650;2023-09-08T17:06:31;31.60;38.60
33007;DHT22;19361;51.598;7.650;2023-09-08T17:11:31;31.40;38.60
33007;DHT22;19361;51.598;7.650;2023-09-08T17:16:37;31.30;38.80
33007;DHT22;19361;51.598;7.650;2023-09-08T17:21:37;31.10;38.80
33007;DHT22;19361;51.598;7.650;2023-09-08T17:26:38;31.00;39.20
33007;DHT22;19361;51.598;7.650;2023-09-08T17:31:38;30.80;39.20
33007;DHT22;19361;51.598;7.650;2023-09-08T17:36:39;30.70;39.40
33007;DHT22;19361;51.598;7.650;2023-09-08T17:41:40;30.50;39.70
33007;DHT22;19361;51.598;7.650;2023-09-08T17:46:41;30.30;39.90
33007;DHT22;19361;51.598;7.650;2023-09-08T17:51:42;30.10;39.70
33007;DHT22;19361;51.598;7.650;2023-09-08T17:56:43;30.00;39.80
33007;DHT22;19361;51.598;7.650;2023-09-08T18:01:43;29.80;39.80
33007;DHT22;19361;51.598;7.650;2023-09-08T18:06:44;29.60;40.00
33007;DHT22;19361;51.598;7.650;2023-09-08T18:11:44;29.50;40.40
33007;DHT22;19361;51.598;7.650;2023-09-08T18:16:45;29.30;40.80
33007;DHT22;19361;51.598;7.650;2023-09-08T18:21:46;29.20;41.00
33007;DHT22;19361;51.598;7.650;2023-09-08T18:26:46;29.10;41.00
33007;DHT22;19361;51.598;7.650;2023-09-08T18:31:47;28.90;40.90
33007;DHT22;19361;51.598;7.650;2023-09-08T18:36:48;28.80;41.50
33007;DHT22;19361;51.598;7.650;2023-09-08T18:41:48;28.60;41.80
33007;DHT22;19361;51.598;7.650;2023-09-08T18:46:49;28.50;42.00
33007;DHT22;19361;51.598;7.650;2023-09-08T18:51:49;28.40;42.20
33007;DHT22;19361;51.598;7.650;2023-09-08T18:56:50;28.30;42.50
33007;DHT22;19361;51.598;7.650;2023-09-08T19:01:52;28.20;42.80
33007;DHT22;19361;51.598;7.650;2023-09-08T19:06:53;28.10;43.00
33007;DHT22;19361;51.598;7.650;2023-09-08T19:11:55;27.90;43.00
33007;DHT22;19361;51.598;7.650;2023-09-08T19:16:56;27.80;43.00
33007;DHT22;19361;51.598;7.650;2023-09-08T19:21:57;27.70;42.70
33007;DHT22;19361;51.598;7.650;2023-09-08T19:26:58;27.60;43.40
33007;DHT22;19361;51.598;7.650;2023-09-08T19:31:59;27.40;43.80
33007;DHT22;19361;51.598;7.650;2023-09-08T19:36:59;27.30;43.70
33007;DHT22;19361;51.598;7.650;2023-09-08T19:42:00;27.20;43.80
33007;DHT22;19361;51.598;7.650;2023-09-08T19:47:00;27.10;44.20
33007;DHT22;19361;51.598;7.650;2023-09-08T19:52:01;27.00;44.90
33007;DHT22;19361;51.598;7.650;2023-09-08T19:57:02;26.90;44.20
33007;DHT22;19361;51.598;7.650;2023-09-08T20:02:02;26.80;44.80
33007;DHT22;19361;51.598;7.650;2023-09-08T20:07:03;26.70;45.20
33007;DHT22;19361;51.598;7.650;2023-09-08T20:12:04;26.60;45.60
33007;DHT22;19361;51.598;7.650;2023-09-08T20:17:04;26.60;45.70
33007;DHT22;19361;51.598;7.650;2023-09-08T20:22:05;26.50;45.90
33007;DHT22;19361;51.598;7.650;2023-09-08T20:27:06;26.40;46.00
33007;DHT22;19361;51.598;7.650;2023-09-08T20:32:10;26.30;46.50
33007;DHT22;19361;51.598;7.650;2023-09-08T20:37:11;26.20;46.50
33007;DHT22;19361;51.598;7.650;2023-09-08T20:42:11;26.20;46.90
33007;DHT22;19361;51.598;7.650;2023-09-08T20:47:12;26.10;46.80
33007;DHT22;19361;51.598;7.650;2023-09-08T20:52:16;26.00;47.30
33007;DHT22;19361;51.598;7.650;2023-09-08T20:57:17;25.90;47.30
33007;DHT22;19361;51.598;7.650;2023-09-08T21:02:19;25.90;47.60
33007;DHT22;19361;51.598;7.650;2023-09-08T21:07:20;25.80;47.50
33007;DHT22;19361;51.598;7.650;2023-09-08T21:12:20;25.70;47.50
33007;DHT22;19361;51.598;7.650;2023-09-08T21:17:21;25.60;47.80
33007;DHT22;19361;51.598;7.650;2023-09-08T21:22:22;25.60;48.10
33007;DHT22;19361;51.598;7.650;2023-09-08T21:27:22;25.50;48.00
33007;DHT22;19361;51.598;7.650;2023-09-08T21:32:23;25.40;48.30
33007;DHT22;19361;51.598;7.650;2023-09-08T21:37:24;25.30;48.20
33007;DHT22;19361;51.598;7.650;2023-09-08T21:42:24;25.30;48.70
33007;DHT22;19361;51.598;7.650;2023-09-08T21:47:25;25.30;48.60
33007;DHT22;19361;51.598;7.650;2023-09-08T21:52:28;25.20;48.90
33007;DHT22;19361;51.598;7.650;2023-09-08T21:57:28;25.10;48.90
33007;DHT22;19361;51.598;7.650;2023-09-08T22:02:29;25.00;49.20
33007;DHT22;19361;51.598;7.650;2023-09-08T22:07:30;25.00;48.70
33007;DHT22;19361;51.598;7.650;2023-09-08T22:12:30;24.90;49.00
33007;DHT22;19361;51.598;7.650;2023-09-08T22:17:31;24.80;48.80
33007;DHT22;19361;51.598;7.650;2023-09-08T22:22:32;24.80;48.90
33007;DHT22;19361;51.598;7.650;2023-09-08T22:27:33;24.70;48.90
33007;DHT22;19361;51.598;7.650;2023-09-08T22:32:34;24.60;49.10
33007;DHT22;19361;51.598;7.650;2023-09-08T22:37:34;24.50;49.80
33007;DHT22;19361;51.598;7.650;2023-09-08T22:42:35;24.40;50.10
33007;DHT22;19361;51.598;7.650;2023-09-08T22:47:36;24.40;50.20
33007;DHT22;19361;51.598;7.650;2023-09-08T22:52:37;24.30;50.10
33007;DHT22;19361;51.598;7.650;2023-09-08T22:57:40;24.30;50.30
33007;DHT22;19361;51.598;7.650;2023-09-08T23:02:40;24.20;50.20
33007;DHT22;19361;51.598;7.650;2023-09-08T23:07:43;24.10;50.20
33007;DHT22;19361;51.598;7.650;2023-09-08T23:12:47;24.00;50.80
33007;DHT22;19361;51.598;7.650;2023-09-08T23:17:48;24.00;50.40
33007;DHT22;19361;51.598;7.650;2023-09-08T23:22:48;23.90;50.70
33007;DHT22;19361;51.598;7.650;2023-09-08T23:27:50;23.80;51.50
33007;DHT22;19361;51.598;7.650;2023-09-08T23:32:51;23.80;51.40
33007;DHT22;19361;51.598;7.650;2023-09-08T23:37:51;23.70;51.70
33007;DHT22;19361;51.598;7.650;2023-09-08T23:42:52;23.70;51.30
33007;DHT22;19361;51.598;7.650;2023-09-08T23:47:52;23.60;51.10
33007;DHT22;19361;51.598;7.650;2023-09-08T23:52:53;23.60;51.10
33007;DHT22;19361;51.598;7.650;2023-09-08T23:57:53;23.50;51.40
